VIV4270 MMMY-MMCL
Flight info
| Callsign | VIV4270 |
|---|---|
| Flight time | N/A |
| Altitude | 38000 |
| Route | MTY1A MTY UJ32 TRC UJ10 AVTAL AVTAL1D |
| Aircraft | A320/M-SDE3FGHIRWY/LB1 |
Departure
| Time | 2026-05-04 18:39 |
|---|---|
| Airport | Monterrey International Airport (MMMY) |
Arrival
| Time | N/A |
|---|---|
| Airport | Bachigualato Federal International Airport (MMCL) |
| Time | Latitude | Longitude | Altitude | Speed | Heading |
|---|---|---|---|---|---|
| 2026-05-04 17:53 | 25.78079 | -100.11886 | 1331 ft | 0 kts | 211° |
| 2026-05-04 18:29 | 25.78093 | -100.11876 | 1338 ft | 3 kts | 211° |
| 2026-05-04 18:29 | 25.78109 | -100.11864 | 1333 ft | 3 kts | 231° |
| 2026-05-04 18:30 | 25.78114 | -100.11828 | 1336 ft | 1 kts | 301° |
| 2026-05-04 18:30 | 25.78112 | -100.11824 | 1336 ft | 0 kts | 301° |
| 2026-05-04 18:33 | 25.78116 | -100.11832 | 1336 ft | 3 kts | 301° |
| 2026-05-04 18:34 | 25.78133 | -100.11858 | 1334 ft | 6 kts | 315° |
| 2026-05-04 18:34 | 25.78175 | -100.11864 | 1331 ft | 7 kts | 15° |
| 2026-05-04 18:34 | 25.78225 | -100.11835 | 1331 ft | 9 kts | 30° |
| 2026-05-04 18:34 | 25.78276 | -100.11801 | 1333 ft | 4 kts | 32° |
| 2026-05-04 18:35 | 25.78307 | -100.11779 | 1332 ft | 7 kts | 32° |
| 2026-05-04 18:35 | 25.78320 | -100.11770 | 1331 ft | 0 kts | 32° |
| 2026-05-04 18:35 | 25.78330 | -100.11764 | 1331 ft | 3 kts | 32° |
| 2026-05-04 18:36 | 25.78356 | -100.11745 | 1331 ft | 6 kts | 32° |
| 2026-05-04 18:36 | 25.78394 | -100.11712 | 1331 ft | 8 kts | 60° |
| 2026-05-04 18:36 | 25.78387 | -100.11668 | 1331 ft | 0 kts | 121° |
| 2026-05-04 18:38 | 25.78382 | -100.11660 | 1331 ft | 6 kts | 121° |
| 2026-05-04 18:38 | 25.78227 | -100.11379 | 1331 ft | 81 kts | 121° |
| 2026-05-04 18:38 | 25.77828 | -100.10648 | 1331 ft | 137 kts | 121° |
| 2026-05-04 18:39 | 25.77240 | -100.09664 | 1623 ft | 163 kts | 125° |
| 2026-05-04 18:39 | 25.76683 | -100.08510 | 2142 ft | 178 kts | 117° |
| 2026-05-04 18:39 | 25.76060 | -100.07225 | 2533 ft | 199 kts | 119° |
| 2026-05-04 18:39 | 25.75334 | -100.05791 | 2921 ft | 226 kts | 120° |
| 2026-05-04 18:40 | 25.74516 | -100.04190 | 3521 ft | 251 kts | 120° |
| 2026-05-04 18:40 | 25.73627 | -100.02455 | 4326 ft | 264 kts | 120° |
| 2026-05-04 18:40 | 25.72715 | -100.00674 | 5197 ft | 273 kts | 120° |
| 2026-05-04 18:40 | 25.71762 | -99.98812 | 6001 ft | 283 kts | 120° |
| 2026-05-04 18:41 | 25.70768 | -99.96893 | 6801 ft | 290 kts | 120° |
| 2026-05-04 18:41 | 25.69900 | -99.94863 | 7616 ft | 295 kts | 104° |
| 2026-05-04 18:41 | 25.69710 | -99.92588 | 8462 ft | 298 kts | 89° |
| 2026-05-04 18:41 | 25.70008 | -99.90313 | 9302 ft | 302 kts | 69° |
| 2026-05-04 18:42 | 25.71117 | -99.88342 | 10096 ft | 305 kts | 44° |
| 2026-05-04 18:42 | 25.72895 | -99.86968 | 10433 ft | 324 kts | 20° |
| 2026-05-04 18:42 | 25.75127 | -99.86495 | 10895 ft | 331 kts | 356° |
| 2026-05-04 18:42 | 25.77366 | -99.87058 | 11566 ft | 332 kts | 332° |
| 2026-05-04 18:43 | 25.79223 | -99.88545 | 12286 ft | 330 kts | 310° |
| 2026-05-04 18:43 | 25.80397 | -99.90703 | 13039 ft | 329 kts | 288° |
| 2026-05-04 18:43 | 25.80816 | -99.93193 | 13809 ft | 330 kts | 272° |
| 2026-05-04 18:43 | 25.80553 | -99.95687 | 14475 ft | 332 kts | 258° |
| 2026-05-04 18:44 | 25.80013 | -99.98183 | 15144 ft | 334 kts | 258° |
| 2026-05-04 18:44 | 25.79826 | -99.99031 | 15368 ft | 335 kts | 258° |
| 2026-05-04 18:44 | 25.78891 | -100.03231 | 16488 ft | 339 kts | 259° |
| 2026-05-04 18:44 | 25.78321 | -100.05781 | 17151 ft | 342 kts | 259° |
| 2026-05-04 18:45 | 25.77843 | -100.07917 | 17688 ft | 344 kts | 259° |
| 2026-05-04 18:45 | 25.77698 | -100.08569 | 17857 ft | 344 kts | 259° |
| 2026-05-04 18:45 | 25.77121 | -100.11157 | 18458 ft | 347 kts | 260° |
| 2026-05-04 18:45 | 25.76560 | -100.13771 | 19002 ft | 349 kts | 263° |
| 2026-05-04 18:46 | 25.76468 | -100.16441 | 19528 ft | 347 kts | 279° |
| 2026-05-04 18:46 | 25.76922 | -100.19073 | 20070 ft | 349 kts | 283° |
| 2026-05-04 18:46 | 25.77414 | -100.21722 | 20620 ft | 352 kts | 283° |
| 2026-05-04 18:46 | 25.77915 | -100.24393 | 21173 ft | 355 kts | 283° |
| 2026-05-04 18:47 | 25.78422 | -100.27080 | 21713 ft | 357 kts | 283° |
| 2026-05-04 18:47 | 25.78931 | -100.29789 | 22247 ft | 360 kts | 283° |
| 2026-05-04 18:47 | 25.79269 | -100.31600 | 22595 ft | 362 kts | 283° |
| 2026-05-04 18:47 | 25.79946 | -100.35243 | 23283 ft | 366 kts | 282° |
| 2026-05-04 18:48 | 25.80459 | -100.38016 | 23771 ft | 369 kts | 282° |
| 2026-05-04 18:48 | 25.80977 | -100.40830 | 24219 ft | 372 kts | 282° |
| 2026-05-04 18:48 | 25.81494 | -100.43645 | 24667 ft | 374 kts | 282° |
| 2026-05-04 18:48 | 25.82016 | -100.46481 | 25109 ft | 376 kts | 282° |
| 2026-05-04 18:49 | 25.82543 | -100.49334 | 25569 ft | 378 kts | 282° |
| 2026-05-04 18:49 | 25.83070 | -100.52202 | 26035 ft | 380 kts | 282° |
| 2026-05-04 18:49 | 25.83599 | -100.55083 | 26483 ft | 382 kts | 282° |
| 2026-05-04 18:49 | 25.84128 | -100.57984 | 26933 ft | 384 kts | 282° |
| 2026-05-04 18:50 | 25.84658 | -100.60895 | 27385 ft | 386 kts | 282° |
| 2026-05-04 18:50 | 25.85192 | -100.63825 | 27821 ft | 388 kts | 282° |
| 2026-05-04 18:50 | 25.85716 | -100.66777 | 28264 ft | 391 kts | 281° |
| 2026-05-04 18:50 | 25.86184 | -100.69756 | 28713 ft | 393 kts | 280° |
| 2026-05-04 18:51 | 25.86472 | -100.71742 | 29009 ft | 394 kts | 279° |
| 2026-05-04 18:51 | 25.87032 | -100.75788 | 29620 ft | 398 kts | 279° |
| 2026-05-04 18:51 | 25.87308 | -100.77802 | 29926 ft | 399 kts | 279° |
| 2026-05-04 18:51 | 25.87731 | -100.80853 | 30332 ft | 401 kts | 279° |
| 2026-05-04 18:52 | 25.88309 | -100.84929 | 30866 ft | 405 kts | 279° |
| 2026-05-04 18:52 | 25.88755 | -100.88024 | 31255 ft | 407 kts | 279° |
| 2026-05-04 18:52 | 25.89060 | -100.90121 | 31514 ft | 408 kts | 279° |
| 2026-05-04 18:52 | 25.89514 | -100.93241 | 31914 ft | 410 kts | 279° |
| 2026-05-04 18:53 | 25.89970 | -100.96361 | 32485 ft | 407 kts | 279° |
| 2026-05-04 18:53 | 25.90421 | -100.99459 | 33083 ft | 405 kts | 278° |
| 2026-05-04 18:53 | 25.90863 | -101.02491 | 33661 ft | 402 kts | 278° |
| 2026-05-04 18:53 | 25.91305 | -101.05548 | 34206 ft | 400 kts | 278° |
| 2026-05-04 18:54 | 25.91745 | -101.08594 | 34703 ft | 398 kts | 278° |
| 2026-05-04 18:54 | 25.92179 | -101.11621 | 35190 ft | 396 kts | 279° |
| 2026-05-04 18:54 | 25.92610 | -101.14629 | 35669 ft | 394 kts | 279° |
| 2026-05-04 18:54 | 25.93039 | -101.17634 | 35882 ft | 393 kts | 279° |
| 2026-05-04 18:55 | 25.93462 | -101.20621 | 35930 ft | 388 kts | 279° |
| 2026-05-04 18:55 | 25.94709 | -101.29418 | 35935 ft | 383 kts | 279° |
| 2026-05-04 18:56 | 25.95545 | -101.35261 | 35937 ft | 383 kts | 279° |
| 2026-05-04 18:56 | 25.96379 | -101.41104 | 35941 ft | 383 kts | 279° |
| 2026-05-04 18:57 | 25.97205 | -101.46959 | 35938 ft | 384 kts | 279° |
| 2026-05-04 18:57 | 25.98027 | -101.52818 | 35940 ft | 383 kts | 278° |
| 2026-05-04 18:58 | 25.98770 | -101.58641 | 35949 ft | 383 kts | 273° |
| 2026-05-04 18:58 | 25.98065 | -101.64509 | 35942 ft | 387 kts | 258° |
| 2026-05-04 18:59 | 25.96714 | -101.70298 | 35934 ft | 387 kts | 258° |
| 2026-05-04 18:59 | 25.95385 | -101.76092 | 35943 ft | 387 kts | 258° |
| 2026-05-04 19:00 | 25.94054 | -101.81890 | 35934 ft | 387 kts | 258° |
| 2026-05-04 19:00 | 25.92713 | -101.87690 | 35934 ft | 388 kts | 258° |
| 2026-05-04 19:01 | 25.91370 | -101.93495 | 35930 ft | 388 kts | 258° |
| 2026-05-04 19:01 | 25.90029 | -101.99301 | 35925 ft | 388 kts | 258° |
| 2026-05-04 19:02 | 25.88685 | -102.05113 | 35928 ft | 389 kts | 258° |
| 2026-05-04 19:02 | 25.87332 | -102.10925 | 35927 ft | 389 kts | 258° |
| 2026-05-04 19:03 | 25.85984 | -102.16702 | 35923 ft | 389 kts | 258° |
| 2026-05-04 19:03 | 25.84617 | -102.22523 | 35927 ft | 389 kts | 258° |
| 2026-05-04 19:04 | 25.83253 | -102.28344 | 35924 ft | 390 kts | 258° |
| 2026-05-04 19:04 | 25.81890 | -102.34169 | 35924 ft | 390 kts | 258° |
| 2026-05-04 19:05 | 25.80516 | -102.39989 | 35923 ft | 390 kts | 258° |
| 2026-05-04 19:05 | 25.79143 | -102.45811 | 35926 ft | 390 kts | 258° |
| 2026-05-04 19:06 | 25.77774 | -102.51634 | 35925 ft | 390 kts | 258° |
| 2026-05-04 19:06 | 25.76405 | -102.57422 | 35926 ft | 390 kts | 258° |
| 2026-05-04 19:07 | 25.75026 | -102.63246 | 35921 ft | 390 kts | 258° |
| 2026-05-04 19:07 | 25.73643 | -102.69066 | 35922 ft | 390 kts | 258° |
| 2026-05-04 19:08 | 25.72263 | -102.74887 | 35918 ft | 390 kts | 258° |
| 2026-05-04 19:08 | 25.70883 | -102.80707 | 35916 ft | 390 kts | 258° |
| 2026-05-04 19:09 | 25.69493 | -102.86528 | 35910 ft | 390 kts | 257° |
| 2026-05-04 19:09 | 25.68100 | -102.92309 | 35913 ft | 391 kts | 257° |
| 2026-05-04 19:10 | 25.66706 | -102.98125 | 35912 ft | 391 kts | 258° |
| 2026-05-04 19:10 | 25.65316 | -103.03948 | 35917 ft | 391 kts | 257° |
| 2026-05-04 19:11 | 25.63920 | -103.09764 | 35947 ft | 391 kts | 257° |
| 2026-05-04 19:11 | 25.62519 | -103.15584 | 35978 ft | 391 kts | 257° |
| 2026-05-04 19:12 | 25.60404 | -103.24314 | 36026 ft | 391 kts | 257° |
| 2026-05-04 19:13 | 25.58996 | -103.30139 | 36055 ft | 391 kts | 257° |
| 2026-05-04 19:13 | 25.57585 | -103.35961 | 36064 ft | 391 kts | 257° |
| 2026-05-04 19:14 | 25.56178 | -103.41774 | 36067 ft | 391 kts | 258° |
| 2026-05-04 19:14 | 25.54975 | -103.47637 | 36069 ft | 390 kts | 260° |
| 2026-05-04 19:15 | 25.53895 | -103.53530 | 36053 ft | 390 kts | 260° |
| 2026-05-04 19:15 | 25.52794 | -103.59411 | 36019 ft | 390 kts | 260° |
| 2026-05-04 19:16 | 25.51659 | -103.65245 | 35984 ft | 390 kts | 259° |
| 2026-05-04 19:16 | 25.50496 | -103.71107 | 35948 ft | 390 kts | 259° |
| 2026-05-04 19:17 | 25.49338 | -103.76970 | 35914 ft | 390 kts | 259° |
| 2026-05-04 19:17 | 25.48183 | -103.82836 | 35898 ft | 390 kts | 259° |
| 2026-05-04 19:18 | 25.47027 | -103.88692 | 35893 ft | 390 kts | 259° |
| 2026-05-04 19:18 | 25.45871 | -103.94558 | 35895 ft | 390 kts | 259° |
| 2026-05-04 19:19 | 25.44714 | -104.00381 | 35887 ft | 390 kts | 259° |
| 2026-05-04 19:19 | 25.43556 | -104.06248 | 35892 ft | 391 kts | 259° |
| 2026-05-04 19:20 | 25.42399 | -104.12116 | 35880 ft | 390 kts | 259° |
| 2026-05-04 19:20 | 25.41229 | -104.17981 | 35887 ft | 390 kts | 259° |
| 2026-05-04 19:21 | 25.40052 | -104.23843 | 35885 ft | 390 kts | 259° |
| 2026-05-04 19:21 | 25.38878 | -104.29701 | 35890 ft | 390 kts | 259° |
| 2026-05-04 19:22 | 25.37702 | -104.35566 | 35891 ft | 390 kts | 259° |
| 2026-05-04 19:22 | 25.36533 | -104.41385 | 35892 ft | 390 kts | 259° |
| 2026-05-04 19:23 | 25.35352 | -104.47247 | 35894 ft | 391 kts | 258° |
| 2026-05-04 19:23 | 25.34140 | -104.53264 | 35883 ft | 411 kts | 258° |
| 2026-05-04 19:24 | 25.32876 | -104.59525 | 35880 ft | 420 kts | 258° |
| 2026-05-04 19:24 | 25.31592 | -104.65838 | 35885 ft | 421 kts | 258° |